createdAt,value
2024-01-24T00:02:05.016Z,100.00
2024-01-24T00:05:29.526Z,100.00
2024-01-24T00:08:52.291Z,100.00
2024-01-24T00:12:18.034Z,100.00
2024-01-24T00:15:42.874Z,100.00
2024-01-24T00:19:07.056Z,100.00
2024-01-24T00:22:36.133Z,100.00
2024-01-24T00:25:59.076Z,100.00
2024-01-24T00:29:21.679Z,100.00
2024-01-24T00:32:44.252Z,100.00
2024-01-24T00:36:11.547Z,100.00
2024-01-24T00:39:34.648Z,99.80
2024-01-24T00:42:57.085Z,98.74
2024-01-24T00:46:19.652Z,100.00
2024-01-24T00:49:42.457Z,100.00
2024-01-24T00:53:11.504Z,100.00
2024-01-24T00:56:36.739Z,100.00
2024-01-24T01:00:07.530Z,100.00
2024-01-24T01:03:30.297Z,100.00
2024-01-24T01:06:54.975Z,100.00
2024-01-24T01:10:22.132Z,100.00
2024-01-24T01:13:44.972Z,100.00
2024-01-24T01:17:07.850Z,100.00
2024-01-24T01:20:30.288Z,100.00
2024-01-24T01:23:52.884Z,100.00
2024-01-24T01:27:19.556Z,100.00
2024-01-24T01:30:41.923Z,100.00
2024-01-24T01:34:05.495Z,99.23
2024-01-24T01:37:31.884Z,100.00
2024-01-24T01:40:55.043Z,100.00
2024-01-24T01:44:19.090Z,100.00
2024-01-24T01:47:42.161Z,100.00
2024-01-24T01:51:04.848Z,100.00
2024-01-24T01:54:30.523Z,100.00
2024-01-24T01:57:53.057Z,100.00
2024-01-24T02:01:17.918Z,100.00
2024-01-24T02:04:41.387Z,100.00
2024-01-24T02:08:04.192Z,100.00
2024-01-24T02:11:26.746Z,100.00
2024-01-24T02:14:52.176Z,100.00
2024-01-24T02:18:16.318Z,100.00
2024-01-24T02:21:39.449Z,100.00
2024-01-24T02:25:03.660Z,100.00
2024-01-24T02:28:26.377Z,100.00
2024-01-24T02:31:48.945Z,100.00
2024-01-24T02:35:11.408Z,100.00
2024-01-24T02:38:34.333Z,100.00
2024-01-24T02:41:58.192Z,100.00
2024-01-24T02:45:23.710Z,100.00
2024-01-24T02:48:46.635Z,100.00
2024-01-24T02:52:09.231Z,100.00
2024-01-24T02:55:34.459Z,100.00
2024-01-24T02:58:58.340Z,100.00
2024-01-24T03:02:20.934Z,100.00
2024-01-24T03:05:43.939Z,100.00
2024-01-24T03:09:06.825Z,99.61
2024-01-24T03:12:29.451Z,99.12
2024-01-24T03:15:53.725Z,98.82
2024-01-24T03:19:16.688Z,100.00
2024-01-24T03:22:39.793Z,98.57
2024-01-24T03:26:02.196Z,99.29
2024-01-24T03:29:24.891Z,100.00
2024-01-24T03:32:48.949Z,100.00
2024-01-24T03:36:12.061Z,100.00
2024-01-24T03:39:37.394Z,100.00
2024-01-24T03:43:02.537Z,100.00
2024-01-24T03:46:25.276Z,100.00
2024-01-24T03:49:50.856Z,100.00
2024-01-24T03:53:13.471Z,100.00
2024-01-24T03:56:36.320Z,100.00
2024-01-24T04:00:01.783Z,100.00
2024-01-24T04:03:34.751Z,100.00
2024-01-24T04:06:59.333Z,99.79
2024-01-24T04:10:21.741Z,99.25
2024-01-24T04:13:47.020Z,99.75
2024-01-24T04:17:09.852Z,99.68
2024-01-24T04:20:32.513Z,100.00
2024-01-24T04:23:56.515Z,100.00
2024-01-24T04:27:22.287Z,98.18
2024-01-24T04:30:45.156Z,99.53
2024-01-24T04:34:13.477Z,98.64
2024-01-24T04:37:35.982Z,99.89
2024-01-24T04:41:06.538Z,100.00
2024-01-24T04:44:29.367Z,100.00
2024-01-24T04:47:55.243Z,100.00
2024-01-24T04:51:20.870Z,100.00
2024-01-24T04:54:44.308Z,98.63
2024-01-24T04:58:08.481Z,99.08
2024-01-24T05:01:32.435Z,99.76
2024-01-24T05:04:54.827Z,100.00
2024-01-24T05:08:17.491Z,100.00
2024-01-24T05:11:43.192Z,100.00
2024-01-24T05:15:09.798Z,100.00
2024-01-24T05:18:32.881Z,100.00
2024-01-24T05:21:56.015Z,100.00
2024-01-24T05:25:18.790Z,100.00
2024-01-24T05:28:42.382Z,100.00
2024-01-24T05:32:07.147Z,100.00
2024-01-24T05:35:31.803Z,100.00
2024-01-24T05:38:56.058Z,100.00
2024-01-24T05:42:19.115Z,100.00
2024-01-24T05:45:42.137Z,100.00
2024-01-24T05:49:06.527Z,100.00
2024-01-24T05:52:32.020Z,100.00
2024-01-24T05:55:54.841Z,100.00
2024-01-24T05:59:17.475Z,100.00
2024-01-24T06:02:40.182Z,100.00
2024-01-24T06:06:04.412Z,100.00
2024-01-24T06:09:30.245Z,100.00
2024-01-24T06:12:52.942Z,100.00
2024-01-24T06:16:15.461Z,100.00
2024-01-24T06:19:38.305Z,100.00
2024-01-24T06:23:02.415Z,100.00
2024-01-24T06:26:25.249Z,100.00
2024-01-24T06:30:17.263Z,100.00
2024-01-24T06:33:33.659Z,100.00
2024-01-24T06:36:58.759Z,100.00
2024-01-24T06:40:23.398Z,100.00
2024-01-24T06:43:45.831Z,100.00
2024-01-24T06:47:08.804Z,100.00
2024-01-24T06:50:34.742Z,100.00
2024-01-24T06:53:57.363Z,100.00
2024-01-24T06:57:21.533Z,100.00
2024-01-24T07:00:47.839Z,100.00
2024-01-24T07:04:11.319Z,100.00
2024-01-24T07:07:34.455Z,100.00
2024-01-24T07:10:57.109Z,100.00
2024-01-24T07:14:20.935Z,100.00
2024-01-24T07:17:43.642Z,100.00
2024-01-24T07:21:07.970Z,100.00
2024-01-24T07:24:33.100Z,100.00
2024-01-24T07:27:55.910Z,100.00
2024-01-24T07:31:20.671Z,100.00
2024-01-24T07:34:48.455Z,100.00
2024-01-24T07:38:11.399Z,100.00
2024-01-24T07:41:34.135Z,100.00
2024-01-24T07:44:56.800Z,100.00
2024-01-24T07:48:21.515Z,100.00
2024-01-24T07:51:48.310Z,100.00
2024-01-24T07:55:17.991Z,100.00
2024-01-24T07:58:49.193Z,100.00
2024-01-24T08:02:12.445Z,100.00
2024-01-24T08:05:36.761Z,100.00
2024-01-24T08:09:05.065Z,100.00
2024-01-24T08:12:27.706Z,100.00
2024-01-24T08:15:50.468Z,100.00
2024-01-24T08:19:14.021Z,100.00
2024-01-24T08:22:38.348Z,100.00
2024-01-24T08:26:00.987Z,100.00
2024-01-24T08:29:36.084Z,99.85
2024-01-24T08:33:03.544Z,97.83
2024-01-24T08:36:39.586Z,98.58
2024-01-24T08:40:04.184Z,98.48
2024-01-24T08:43:26.456Z,99.51
2024-01-24T08:46:50.256Z,100.00
2024-01-24T08:50:15.921Z,98.99
2024-01-24T08:53:39.680Z,98.29
2024-01-24T08:57:05.093Z,97.81
2024-01-24T09:00:30.754Z,97.93
2024-01-24T09:03:54.649Z,98.34
2024-01-24T09:07:21.414Z,97.72
2024-01-24T09:10:44.092Z,96.95
2024-01-24T09:14:08.594Z,96.40
2024-01-24T09:17:31.408Z,97.54
2024-01-24T09:20:54.296Z,97.91
2024-01-24T09:24:16.949Z,98.41
2024-01-24T09:27:50.243Z,97.69
2024-01-24T09:31:14.440Z,97.75
2024-01-24T09:34:37.602Z,97.12
2024-01-24T09:38:03.415Z,98.13
2024-01-24T09:41:26.240Z,98.25
2024-01-24T09:44:49.553Z,98.73
2024-01-24T09:48:14.105Z,100.00
2024-01-24T09:51:36.860Z,99.24
2024-01-24T09:55:06.976Z,98.52
2024-01-24T09:58:34.060Z,98.54
2024-01-24T10:01:56.816Z,98.09
2024-01-24T10:05:22.544Z,97.30
2024-01-24T10:08:45.155Z,97.88
2024-01-24T10:12:09.648Z,97.23
2024-01-24T10:15:32.845Z,96.24
2024-01-24T10:18:58.853Z,94.94
2024-01-24T10:22:24.162Z,94.21
2024-01-24T10:25:46.891Z,93.78
2024-01-24T10:29:11.225Z,93.26
2024-01-24T10:32:36.118Z,90.58
2024-01-24T10:36:10.787Z,88.21
2024-01-24T10:39:42.138Z,86.12
2024-01-24T10:43:07.827Z,85.60
2024-01-24T10:46:30.665Z,84.42
2024-01-24T10:49:53.505Z,83.65
2024-01-24T10:53:16.906Z,83.29
2024-01-24T10:56:43.325Z,82.55
2024-01-24T11:00:12.914Z,83.27
2024-01-24T11:03:40.179Z,83.19
2024-01-24T11:07:07.286Z,83.76
2024-01-24T11:10:35.588Z,83.53
2024-01-24T11:14:02.948Z,84.17
2024-01-24T11:17:25.889Z,84.79
2024-01-24T11:20:49.175Z,83.96
2024-01-24T11:24:11.814Z,83.46
2024-01-24T11:27:36.254Z,83.62
2024-01-24T11:31:01.267Z,84.01
2024-01-24T11:34:24.659Z,84.15
2024-01-24T11:37:48.828Z,83.97
2024-01-24T11:41:25.743Z,83.29
2024-01-24T11:44:51.909Z,83.19
2024-01-24T11:48:16.272Z,83.77
2024-01-24T11:51:38.598Z,83.91
2024-01-24T11:55:01.784Z,82.82
2024-01-24T11:58:27.222Z,83.23
2024-01-24T12:01:51.252Z,82.51
2024-01-24T12:05:17.318Z,82.77
2024-01-24T12:08:42.571Z,82.89
2024-01-24T12:12:06.257Z,82.93
2024-01-24T12:15:31.670Z,82.87
2024-01-24T12:18:54.557Z,82.01
2024-01-24T12:22:19.268Z,83.60
2024-01-24T12:25:43.583Z,85.22
2024-01-24T12:29:08.524Z,86.89
2024-01-24T12:32:31.713Z,86.39
2024-01-24T12:35:55.158Z,88.61
2024-01-24T12:39:27.640Z,91.49
2024-01-24T12:42:51.096Z,94.01
2024-01-24T12:46:14.464Z,95.36
2024-01-24T12:49:40.551Z,95.16
2024-01-24T12:53:03.672Z,95.73
2024-01-24T12:56:28.243Z,96.29
2024-01-24T12:59:51.118Z,94.75
2024-01-24T13:03:15.806Z,95.38
2024-01-24T13:06:42.072Z,95.18
2024-01-24T13:10:07.185Z,94.51
2024-01-24T13:13:32.753Z,94.09
2024-01-24T13:17:08.090Z,93.61
2024-01-24T13:20:30.818Z,93.24
2024-01-24T13:23:53.826Z,92.71
2024-01-24T13:27:16.832Z,93.44
2024-01-24T13:30:45.130Z,92.34
2024-01-24T13:34:08.367Z,92.32
2024-01-24T13:37:39.743Z,92.11
2024-01-24T13:41:02.843Z,92.41
2024-01-24T13:44:25.273Z,94.32
2024-01-24T13:47:48.411Z,96.33
2024-01-24T13:51:12.048Z,99.18
2024-01-24T13:54:36.237Z,100.00
2024-01-24T13:58:01.564Z,100.00
2024-01-24T14:01:24.634Z,100.00
2024-01-24T14:04:47.919Z,100.00
2024-01-24T14:08:10.568Z,100.00
2024-01-24T14:11:35.906Z,100.00
2024-01-24T14:15:05.732Z,100.00
2024-01-24T14:18:34.788Z,100.00
2024-01-24T14:21:57.596Z,100.00
2024-01-24T14:25:21.183Z,100.00
2024-01-24T14:28:47.585Z,98.33
2024-01-24T14:32:13.058Z,99.41
2024-01-24T14:35:35.616Z,98.09
2024-01-24T14:38:59.920Z,98.37
2024-01-24T14:42:23.482Z,96.87
2024-01-24T14:45:48.132Z,97.79
2024-01-24T14:49:12.369Z,97.34
2024-01-24T14:52:38.420Z,97.57
2024-01-24T14:56:00.697Z,98.78
2024-01-24T14:59:26.585Z,98.44
2024-01-24T15:02:51.137Z,98.37
2024-01-24T15:06:13.985Z,98.79
2024-01-24T15:09:37.389Z,99.78
2024-01-24T15:13:00.255Z,99.88
2024-01-24T15:16:23.129Z,100.00
2024-01-24T15:19:49.783Z,100.00
2024-01-24T15:23:15.698Z,100.00
2024-01-24T15:26:38.426Z,100.00
2024-01-24T15:30:01.076Z,100.00
2024-01-24T15:33:23.824Z,100.00
2024-01-24T15:36:48.496Z,100.00
2024-01-24T15:40:15.885Z,100.00
2024-01-24T15:43:40.105Z,100.00
2024-01-24T15:47:07.220Z,100.00
2024-01-24T15:50:30.163Z,100.00
2024-01-24T15:53:54.704Z,100.00
2024-01-24T15:57:17.550Z,100.00
2024-01-24T16:00:43.540Z,100.00
2024-01-24T16:04:06.632Z,100.00
2024-01-24T16:07:31.918Z,100.00
2024-01-24T16:10:58.358Z,100.00
2024-01-24T16:14:23.316Z,100.00
2024-01-24T16:17:46.391Z,100.00
2024-01-24T16:21:08.951Z,100.00
2024-01-24T16:24:31.703Z,99.67
2024-01-24T16:27:56.019Z,99.53
2024-01-24T16:31:19.441Z,97.57
2024-01-24T16:34:42.001Z,98.79
2024-01-24T16:38:07.163Z,98.90
2024-01-24T16:41:29.461Z,99.00
2024-01-24T16:44:53.528Z,99.19
2024-01-24T16:48:15.906Z,100.00
2024-01-24T16:51:38.831Z,100.00
2024-01-24T16:55:01.727Z,100.00
2024-01-24T16:58:24.979Z,100.00
2024-01-24T17:01:51.180Z,100.00
2024-01-24T17:05:14.869Z,100.00
2024-01-24T17:08:40.276Z,100.00
2024-01-24T17:12:02.825Z,100.00
2024-01-24T17:15:25.513Z,100.00
2024-01-24T17:18:50.309Z,100.00
2024-01-24T17:22:15.832Z,100.00
2024-01-24T17:25:43.130Z,100.00
2024-01-24T17:29:05.923Z,100.00
2024-01-24T17:32:31.174Z,100.00
2024-01-24T17:35:55.549Z,100.00
2024-01-24T17:39:21.672Z,100.00
2024-01-24T17:42:44.544Z,100.00
2024-01-24T17:46:09.809Z,100.00
2024-01-24T17:49:33.043Z,100.00
2024-01-24T17:53:06.303Z,100.00
2024-01-24T17:56:29.528Z,100.00
2024-01-24T18:00:00.148Z,100.00
2024-01-24T18:03:26.380Z,100.00
2024-01-24T18:06:53.961Z,100.00
2024-01-24T18:10:21.732Z,100.00
2024-01-24T18:13:50.672Z,100.00
2024-01-24T18:17:18.623Z,100.00
2024-01-24T18:20:44.046Z,100.00
2024-01-24T18:24:13.358Z,100.00
2024-01-24T18:27:40.300Z,100.00
2024-01-24T18:31:05.858Z,100.00
2024-01-24T18:34:38.290Z,100.00
2024-01-24T18:38:05.863Z,100.00
2024-01-24T18:41:36.800Z,100.00
2024-01-24T18:45:08.474Z,100.00
2024-01-24T18:48:34.266Z,100.00
2024-01-24T18:52:02.583Z,100.00
2024-01-24T18:55:31.623Z,100.00
2024-01-24T18:58:57.828Z,100.00
2024-01-24T19:02:26.884Z,100.00
2024-01-24T19:05:52.600Z,100.00
2024-01-24T19:09:19.005Z,100.00
2024-01-24T19:12:45.557Z,100.00
2024-01-24T19:16:14.484Z,100.00
2024-01-24T19:19:44.601Z,100.00
2024-01-24T19:23:10.962Z,100.00
2024-01-24T19:26:37.569Z,100.00
2024-01-24T19:30:04.288Z,100.00
2024-01-24T19:33:30.318Z,100.00
2024-01-24T19:36:58.591Z,100.00
2024-01-24T19:40:24.730Z,100.00
2024-01-24T19:43:52.823Z,100.00
2024-01-24T19:47:18.824Z,100.00
2024-01-24T19:50:46.642Z,100.00
2024-01-24T19:54:15.484Z,100.00
2024-01-24T19:57:42.163Z,100.00
2024-01-24T20:01:10.642Z,100.00
2024-01-24T20:04:40.038Z,100.00
2024-01-24T20:08:07.524Z,100.00
2024-01-24T20:11:38.329Z,100.00
2024-01-24T20:15:04.486Z,100.00
2024-01-24T20:18:30.489Z,100.00
2024-01-24T20:21:55.982Z,100.00
2024-01-24T20:25:27.494Z,100.00
2024-01-24T20:28:54.633Z,100.00
2024-01-24T20:32:20.922Z,99.25
2024-01-24T20:35:46.423Z,99.79
2024-01-24T20:39:13.036Z,100.00
2024-01-24T20:42:38.170Z,100.00
2024-01-24T20:46:05.732Z,100.00
2024-01-24T20:49:30.996Z,100.00
2024-01-24T20:52:56.588Z,100.00
2024-01-24T20:56:24.516Z,100.00
2024-01-24T20:59:50.899Z,100.00
2024-01-24T21:03:20.981Z,100.00
2024-01-24T21:06:49.474Z,100.00
2024-01-24T21:10:17.872Z,100.00
2024-01-24T21:13:42.437Z,100.00
2024-01-24T21:17:08.918Z,100.00
2024-01-24T21:20:34.108Z,100.00
2024-01-24T21:24:02.856Z,100.00
2024-01-24T21:27:32.594Z,100.00
2024-01-24T21:30:56.117Z,100.00
2024-01-24T21:34:19.393Z,100.00
2024-01-24T21:37:43.351Z,100.00
2024-01-24T21:41:07.756Z,100.00
2024-01-24T21:44:30.186Z,100.00
2024-01-24T21:47:52.890Z,100.00
2024-01-24T21:51:15.688Z,100.00
2024-01-24T21:54:41.031Z,100.00
2024-01-24T21:58:05.940Z,100.00
2024-01-24T22:01:34.211Z,100.00
2024-01-24T22:04:56.802Z,100.00
2024-01-24T22:08:21.091Z,100.00
2024-01-24T22:11:45.094Z,100.00
2024-01-24T22:15:09.364Z,100.00
2024-01-24T22:18:40.934Z,100.00
2024-01-24T22:22:09.988Z,100.00
2024-01-24T22:25:32.874Z,100.00
2024-01-24T22:28:56.890Z,100.00
2024-01-24T22:32:19.756Z,100.00
2024-01-24T22:35:43.329Z,100.00
2024-01-24T22:39:08.393Z,100.00
2024-01-24T22:42:31.194Z,100.00
2024-01-24T22:45:55.509Z,100.00
2024-01-24T22:49:19.148Z,100.00
2024-01-24T22:52:42.471Z,100.00
2024-01-24T22:56:05.589Z,100.00
2024-01-24T22:59:28.805Z,100.00
2024-01-24T23:02:53.039Z,100.00
2024-01-24T23:06:15.973Z,100.00
2024-01-24T23:09:38.778Z,100.00
2024-01-24T23:13:03.720Z,100.00
2024-01-24T23:16:25.997Z,100.00
2024-01-24T23:19:53.655Z,100.00
2024-01-24T23:23:16.036Z,100.00
2024-01-24T23:26:43.482Z,100.00
2024-01-24T23:30:12.603Z,96.91
2024-01-24T23:33:36.113Z,95.39
2024-01-24T23:37:00.505Z,93.95
2024-01-24T23:40:25.715Z,93.75
2024-01-24T23:43:48.317Z,92.47
2024-01-24T23:47:10.980Z,90.99
2024-01-24T23:50:33.992Z,89.84
2024-01-24T23:54:00.656Z,88.54
2024-01-24T23:57:27.362Z,87.42
